KASX/ASX METAR and TAF weather

Enter ICAO airport designator
Station Type Date Time Source
KASX METAR 2019/10/15 07:53 UTC NOAA

KASX 150753Z AUTO 00000KT 10SM CLR M01/M02 A2993 RMK AO2 SLP145 T10111017


Station Type Date Time Source
KASX Decoded METAR 2019/10/15 07:53 UTC NOAA

ASHLAND KENNEDY MEMORIAL, WI, United States (KASX) 46-33N 090-55W 251M
Oct 15, 2019 - 03:53 AM EDT / 2019.10.15 0753 UTC
Wind: Calm:0
Visibility: 10 mile(s):0
Sky conditions: clear
Temperature: 30.0 F (-1.1 C)
Dew Point: 28.9 F (-1.7 C)
Relative Humidity: 95%
Pressure (altimeter): 29.93 in. Hg (1013 hPa)
ob: KASX 150753Z AUTO 00000KT 10SM CLR M01/M02 A2993 RMK AO2 SLP145 T10111017
cycle: 8

Station Type Date Time Source
KASX TAF UTC NOAA

Error!

Example: see airport list